sensor_id;sensor_type;location;lat;lon;timestamp;pressure;altitude;pressure_sealevel;temperature;humidity
60920;BME280;59039;52.108;19.942;2023-02-28T00:01:09;102163.72;;;-0.58;65.09
60920;BME280;59039;52.108;19.942;2023-02-28T00:03:43;102165.86;;;-0.58;65.37
60920;BME280;59039;52.108;19.942;2023-02-28T00:06:09;102164.96;;;-0.58;65.38
60920;BME280;59039;52.108;19.942;2023-02-28T00:08:38;102161.23;;;-0.59;65.66
60920;BME280;59039;52.108;19.942;2023-02-28T00:11:06;102161.05;;;-0.58;66.35
60920;BME280;59039;52.108;19.942;2023-02-28T00:13:36;102160.15;;;-0.58;66.30
60920;BME280;59039;52.108;19.942;2023-02-28T00:16:10;102157.08;;;-0.57;66.24
60920;BME280;59039;52.108;19.942;2023-02-28T00:18:43;102152.27;;;-0.57;65.91
60920;BME280;59039;52.108;19.942;2023-02-28T00:21:11;102155.30;;;-0.57;65.60
60920;BME280;59039;52.108;19.942;2023-02-28T00:23:37;102156.95;;;-0.58;65.34
60920;BME280;59039;52.108;19.942;2023-02-28T00:26:05;102156.22;;;-0.58;65.29
60920;BME280;59039;52.108;19.942;2023-02-28T00:28:51;102164.08;;;-0.58;66.15
60920;BME280;59039;52.108;19.942;2023-02-28T00:31:19;102166.45;;;-0.61;66.47
60920;BME280;59039;52.108;19.942;2023-02-28T00:33:47;102165.30;;;-0.65;66.04
60920;BME280;59039;52.108;19.942;2023-02-28T00:36:13;102163.02;;;-0.67;66.65
60920;BME280;59039;52.108;19.942;2023-02-28T00:38:41;102163.47;;;-0.70;67.82
60920;BME280;59039;52.108;19.942;2023-02-28T00:41:10;102161.92;;;-0.72;67.88
60920;BME280;59039;52.108;19.942;2023-02-28T00:43:39;102165.67;;;-0.72;66.60
60920;BME280;59039;52.108;19.942;2023-02-28T00:46:05;102166.38;;;-0.72;66.15
60920;BME280;59039;52.108;19.942;2023-02-28T00:48:30;102166.38;;;-0.72;66.89
60920;BME280;59039;52.108;19.942;2023-02-28T00:50:56;102166.89;;;-0.71;67.42
60920;BME280;59039;52.108;19.942;2023-02-28T00:53:21;102170.62;;;-0.71;67.15
60920;BME280;59039;52.108;19.942;2023-02-28T00:55:49;102165.83;;;-0.71;66.59
60920;BME280;59039;52.108;19.942;2023-02-28T00:58:14;102168.48;;;-0.71;66.46
60920;BME280;59039;52.108;19.942;2023-02-28T01:00:43;102170.08;;;-0.70;66.28
60920;BME280;59039;52.108;19.942;2023-02-28T01:03:18;102170.80;;;-0.71;66.18
60920;BME280;59039;52.108;19.942;2023-02-28T01:05:44;102169.95;;;-0.72;66.14
60920;BME280;59039;52.108;19.942;2023-02-28T01:08:10;102169.05;;;-0.72;66.32
60920;BME280;59039;52.108;19.942;2023-02-28T01:10:57;102167.63;;;-0.73;66.38
60920;BME280;59039;52.108;19.942;2023-02-28T01:13:22;102171.21;;;-0.73;66.83
60920;BME280;59039;52.108;19.942;2023-02-28T01:15:55;102173.89;;;-0.73;66.90
60920;BME280;59039;52.108;19.942;2023-02-28T01:18:21;102172.87;;;-0.75;67.04
60920;BME280;59039;52.108;19.942;2023-02-28T01:20:47;102171.86;;;-0.77;66.74
60920;BME280;59039;52.108;19.942;2023-02-28T01:23:13;102172.64;;;-0.80;66.83
60920;BME280;59039;52.108;19.942;2023-02-28T01:25:39;102171.46;;;-0.83;66.79
60920;BME280;59039;52.108;19.942;2023-02-28T01:28:07;102173.30;;;-0.86;66.31
60920;BME280;59039;52.108;19.942;2023-02-28T01:30:32;102173.18;;;-0.88;66.33
60920;BME280;59039;52.108;19.942;2023-02-28T01:32:58;102172.15;;;-0.90;66.11
60920;BME280;59039;52.108;19.942;2023-02-28T01:35:24;102168.30;;;-0.91;66.24
60920;BME280;59039;52.108;19.942;2023-02-28T01:37:50;102165.13;;;-0.93;66.66
60920;BME280;59039;52.108;19.942;2023-02-28T01:40:15;102163.92;;;-0.94;66.41
60920;BME280;59039;52.108;19.942;2023-02-28T01:42:50;102164.48;;;-0.95;66.39
60920;BME280;59039;52.108;19.942;2023-02-28T01:45:41;102168.78;;;-0.97;66.30
60920;BME280;59039;52.108;19.942;2023-02-28T01:48:09;102164.20;;;-0.99;66.31
60920;BME280;59039;52.108;19.942;2023-02-28T01:50:41;102168.89;;;-1.01;66.15
60920;BME280;59039;52.108;19.942;2023-02-28T01:53:20;102170.37;;;-1.04;66.08
60920;BME280;59039;52.108;19.942;2023-02-28T01:55:49;102167.94;;;-1.06;66.13
60920;BME280;59039;52.108;19.942;2023-02-28T01:58:15;102167.14;;;-1.10;66.14
60920;BME280;59039;52.108;19.942;2023-02-28T02:00:41;102167.05;;;-1.13;66.52
60920;BME280;59039;52.108;19.942;2023-02-28T02:03:09;102164.63;;;-1.16;66.40
60920;BME280;59039;52.108;19.942;2023-02-28T02:05:37;102167.52;;;-1.18;66.27
60920;BME280;59039;52.108;19.942;2023-02-28T02:08:11;102166.33;;;-1.20;66.23
60920;BME280;59039;52.108;19.942;2023-02-28T02:10:49;102162.19;;;-1.26;66.12
60920;BME280;59039;52.108;19.942;2023-02-28T02:25:19;102159.39;;;-1.51;68.58
60920;BME280;59039;52.108;19.942;2023-02-28T02:35:49;102163.08;;;-1.64;68.97
60920;BME280;59039;52.108;19.942;2023-02-28T02:38:39;102167.00;;;-1.65;68.68
60920;BME280;59039;52.108;19.942;2023-02-28T02:41:34;102169.90;;;-1.67;68.75
60920;BME280;59039;52.108;19.942;2023-02-28T02:44:37;102166.20;;;-1.70;68.60
60920;BME280;59039;52.108;19.942;2023-02-28T02:47:11;102169.79;;;-1.71;69.49
60920;BME280;59039;52.108;19.942;2023-02-28T02:49:45;102168.92;;;-1.73;68.74
60920;BME280;59039;52.108;19.942;2023-02-28T02:52:26;102172.68;;;-1.73;68.92
60920;BME280;59039;52.108;19.942;2023-02-28T02:55:14;102171.47;;;-1.75;69.43
60920;BME280;59039;52.108;19.942;2023-02-28T02:57:56;102165.45;;;-1.76;68.61
60920;BME280;59039;52.108;19.942;2023-02-28T03:00:29;102165.11;;;-1.77;68.29
60920;BME280;59039;52.108;19.942;2023-02-28T03:02:58;102169.39;;;-1.77;68.96
60920;BME280;59039;52.108;19.942;2023-02-28T03:05:27;102169.80;;;-1.80;68.94
60920;BME280;59039;52.108;19.942;2023-02-28T03:07:57;102170.73;;;-1.81;68.93
60920;BME280;59039;52.108;19.942;2023-02-28T03:10:55;102174.66;;;-1.82;69.33
60920;BME280;59039;52.108;19.942;2023-02-28T03:25:37;102177.93;;;-1.94;68.83
60920;BME280;59039;52.108;19.942;2023-02-28T03:28:28;102180.10;;;-1.97;68.65
60920;BME280;59039;52.108;19.942;2023-02-28T03:31:10;102184.09;;;-2.00;69.48
60920;BME280;59039;52.108;19.942;2023-02-28T03:34:04;102184.86;;;-2.04;70.06
60920;BME280;59039;52.108;19.942;2023-02-28T03:36:38;102184.92;;;-2.07;70.03
60920;BME280;59039;52.108;19.942;2023-02-28T03:39:09;102184.98;;;-2.09;69.53
60920;BME280;59039;52.108;19.942;2023-02-28T03:44:38;102193.20;;;-2.12;69.15
60920;BME280;59039;52.108;19.942;2023-02-28T03:47:09;102193.45;;;-2.16;69.26
60920;BME280;59039;52.108;19.942;2023-02-28T03:49:50;102193.66;;;-2.18;69.53
60920;BME280;59039;52.108;19.942;2023-02-28T03:52:22;102198.31;;;-2.19;69.42
60920;BME280;59039;52.108;19.942;2023-02-28T03:55:13;102200.83;;;-2.21;70.03
60920;BME280;59039;52.108;19.942;2023-02-28T03:57:51;102198.73;;;-2.23;69.88
60920;BME280;59039;52.108;19.942;2023-02-28T04:00:30;102202.33;;;-2.25;69.52
60920;BME280;59039;52.108;19.942;2023-02-28T04:02:57;102207.12;;;-2.25;69.26
60920;BME280;59039;52.108;19.942;2023-02-28T04:05:29;102206.97;;;-2.26;69.36
60920;BME280;59039;52.108;19.942;2023-02-28T04:08:06;102199.54;;;-2.28;69.37
60920;BME280;59039;52.108;19.942;2023-02-28T04:10:42;102203.65;;;-2.29;69.44
60920;BME280;59039;52.108;19.942;2023-02-28T04:13:10;102205.98;;;-2.31;69.47
60920;BME280;59039;52.108;19.942;2023-02-28T04:15:36;102206.75;;;-2.33;69.32
60920;BME280;59039;52.108;19.942;2023-02-28T04:18:01;102204.66;;;-2.35;69.27
60920;BME280;59039;52.108;19.942;2023-02-28T04:20:29;102203.45;;;-2.38;69.32
60920;BME280;59039;52.108;19.942;2023-02-28T04:23:02;102202.61;;;-2.40;69.28
60920;BME280;59039;52.108;19.942;2023-02-28T04:25:27;102201.58;;;-2.42;69.45
60920;BME280;59039;52.108;19.942;2023-02-28T04:27:55;102200.91;;;-2.45;69.91
60920;BME280;59039;52.108;19.942;2023-02-28T04:30:23;102206.61;;;-2.46;69.74
60920;BME280;59039;52.108;19.942;2023-02-28T04:32:51;102207.34;;;-2.47;69.43
60920;BME280;59039;52.108;19.942;2023-02-28T04:35:22;102210.21;;;-2.48;69.89
60920;BME280;59039;52.108;19.942;2023-02-28T04:37:47;102209.54;;;-2.49;69.61
60920;BME280;59039;52.108;19.942;2023-02-28T04:40:13;102205.48;;;-2.51;69.61
60920;BME280;59039;52.108;19.942;2023-02-28T04:42:38;102206.38;;;-2.51;69.63
60920;BME280;59039;52.108;19.942;2023-02-28T04:45:04;102206.40;;;-2.54;69.90
60920;BME280;59039;52.108;19.942;2023-02-28T04:47:30;102202.88;;;-2.55;69.52
60920;BME280;59039;52.108;19.942;2023-02-28T04:49:59;102205.96;;;-2.58;69.86
60920;BME280;59039;52.108;19.942;2023-02-28T04:52:24;102208.63;;;-2.59;70.28
60920;BME280;59039;52.108;19.942;2023-02-28T04:54:52;102210.58;;;-2.60;70.05
60920;BME280;59039;52.108;19.942;2023-02-28T04:57:17;102213.44;;;-2.61;69.87
60920;BME280;59039;52.108;19.942;2023-02-28T04:59:43;102215.40;;;-2.61;69.97
60920;BME280;59039;52.108;19.942;2023-02-28T05:02:11;102220.41;;;-2.63;70.00
60920;BME280;59039;52.108;19.942;2023-02-28T05:04:39;102220.06;;;-2.63;69.99
60920;BME280;59039;52.108;19.942;2023-02-28T05:07:11;102220.95;;;-2.64;69.92
60920;BME280;59039;52.108;19.942;2023-02-28T05:09:36;102226.27;;;-2.63;69.93
60920;BME280;59039;52.108;19.942;2023-02-28T05:12:02;102228.58;;;-2.64;69.69
60920;BME280;59039;52.108;19.942;2023-02-28T05:14:27;102228.95;;;-2.65;69.56
60920;BME280;59039;52.108;19.942;2023-02-28T05:16:52;102228.27;;;-2.66;69.76
60920;BME280;59039;52.108;19.942;2023-02-28T05:19:18;102228.13;;;-2.68;69.95
60920;BME280;59039;52.108;19.942;2023-02-28T05:21:54;102229.37;;;-2.68;70.27
60920;BME280;59039;52.108;19.942;2023-02-28T05:24:20;102233.29;;;-2.69;70.47
60920;BME280;59039;52.108;19.942;2023-02-28T05:26:45;102232.98;;;-2.71;70.27
60920;BME280;59039;52.108;19.942;2023-02-28T05:29:10;102233.52;;;-2.74;70.53
60920;BME280;59039;52.108;19.942;2023-02-28T05:31:36;102235.16;;;-2.75;70.07
60920;BME280;59039;52.108;19.942;2023-02-28T05:34:02;102236.95;;;-2.76;69.88
60920;BME280;59039;52.108;19.942;2023-02-28T05:36:28;102241.39;;;-2.76;69.98
60920;BME280;59039;52.108;19.942;2023-02-28T05:38:53;102243.72;;;-2.78;70.48
60920;BME280;59039;52.108;19.942;2023-02-28T05:41:19;102245.54;;;-2.80;70.18
60920;BME280;59039;52.108;19.942;2023-02-28T05:43:45;102248.41;;;-2.82;70.69
60920;BME280;59039;52.108;19.942;2023-02-28T05:46:12;102250.75;;;-2.85;70.84
60920;BME280;59039;52.108;19.942;2023-02-28T05:48:39;102254.85;;;-2.87;70.23
60920;BME280;59039;52.108;19.942;2023-02-28T05:51:06;102255.97;;;-2.89;70.31
60920;BME280;59039;52.108;19.942;2023-02-28T05:53:32;102258.83;;;-2.90;71.26
60920;BME280;59039;52.108;19.942;2023-02-28T05:55:58;102260.95;;;-2.91;71.96
60920;BME280;59039;52.108;19.942;2023-02-28T05:58:24;102261.70;;;-2.93;71.96
60920;BME280;59039;52.108;19.942;2023-02-28T06:00:49;102265.77;;;-2.93;72.04
60920;BME280;59039;52.108;19.942;2023-02-28T06:03:18;102264.52;;;-2.92;71.62
60920;BME280;59039;52.108;19.942;2023-02-28T06:05:43;102273.02;;;-2.91;72.25
60920;BME280;59039;52.108;19.942;2023-02-28T06:08:12;102275.11;;;-2.89;72.33
60920;BME280;59039;52.108;19.942;2023-02-28T06:10:37;102276.35;;;-2.89;72.50
60920;BME280;59039;52.108;19.942;2023-02-28T06:13:03;102281.46;;;-2.87;72.57
60920;BME280;59039;52.108;19.942;2023-02-28T06:15:29;102281.97;;;-2.85;72.72
60920;BME280;59039;52.108;19.942;2023-02-28T06:18:04;102280.71;;;-2.84;72.68
60920;BME280;59039;52.108;19.942;2023-02-28T06:20:32;102282.61;;;-2.80;72.49
60920;BME280;59039;52.108;19.942;2023-02-28T06:22:58;102280.27;;;-2.78;73.34
60920;BME280;59039;52.108;19.942;2023-02-28T06:25:24;102281.48;;;-2.76;73.96
60920;BME280;59039;52.108;19.942;2023-02-28T06:27:49;102276.86;;;-2.76;74.01
60920;BME280;59039;52.108;19.942;2023-02-28T06:30:15;102274.89;;;-2.74;74.32
60920;BME280;59039;52.108;19.942;2023-02-28T06:32:40;102275.73;;;-2.71;74.12
60920;BME280;59039;52.108;19.942;2023-02-28T06:35:06;102276.23;;;-2.70;74.31
60920;BME280;59039;52.108;19.942;2023-02-28T06:37:32;102278.35;;;-2.69;74.78
60920;BME280;59039;52.108;19.942;2023-02-28T06:39:58;102279.04;;;-2.67;74.79
60920;BME280;59039;52.108;19.942;2023-02-28T06:42:26;102277.94;;;-2.64;75.12
60920;BME280;59039;52.108;19.942;2023-02-28T06:44:55;102278.41;;;-2.61;74.98
60920;BME280;59039;52.108;19.942;2023-02-28T06:47:24;102275.54;;;-2.59;75.13
60920;BME280;59039;52.108;19.942;2023-02-28T06:49:50;102273.15;;;-2.55;75.03
60920;BME280;59039;52.108;19.942;2023-02-28T06:52:15;102271.30;;;-2.50;74.81
60920;BME280;59039;52.108;19.942;2023-02-28T06:54:41;102272.80;;;-2.45;74.89
60920;BME280;59039;52.108;19.942;2023-02-28T06:57:07;102269.67;;;-2.39;74.75
60920;BME280;59039;52.108;19.942;2023-02-28T07:02:20;102268.09;;;-2.28;72.54
60920;BME280;59039;52.108;19.942;2023-02-28T07:04:45;102269.50;;;-2.28;72.93
60920;BME280;59039;52.108;19.942;2023-02-28T07:07:13;102269.42;;;-2.24;73.36
60920;BME280;59039;52.108;19.942;2023-02-28T07:09:39;102269.69;;;-2.18;72.89
60920;BME280;59039;52.108;19.942;2023-02-28T07:12:04;102269.06;;;-2.13;72.70
60920;BME280;59039;52.108;19.942;2023-02-28T07:14:30;102271.83;;;-2.10;72.12
60920;BME280;59039;52.108;19.942;2023-02-28T07:16:55;102269.51;;;-2.08;72.05
60920;BME280;59039;52.108;19.942;2023-02-28T07:19:24;102270.34;;;-2.06;72.41
60920;BME280;59039;52.108;19.942;2023-02-28T07:21:56;102269.55;;;-2.01;72.09
60920;BME280;59039;52.108;19.942;2023-02-28T07:26:57;102268.19;;;-1.96;72.54
60920;BME280;59039;52.108;19.942;2023-02-28T07:29:23;102269.00;;;-1.92;72.29
60920;BME280;59039;52.108;19.942;2023-02-28T07:31:48;102271.21;;;-1.87;71.92
60920;BME280;59039;52.108;19.942;2023-02-28T07:34:14;102276.27;;;-1.82;72.47
60920;BME280;59039;52.108;19.942;2023-02-28T07:36:39;102271.55;;;-1.76;72.07
60920;BME280;59039;52.108;19.942;2023-02-28T07:39:05;102278.04;;;-1.71;71.76
60920;BME280;59039;52.108;19.942;2023-02-28T07:41:33;102275.81;;;-1.68;71.97
60920;BME280;59039;52.108;19.942;2023-02-28T07:43:59;102274.11;;;-1.62;72.22
60920;BME280;59039;52.108;19.942;2023-02-28T07:46:26;102272.73;;;-1.56;71.91
60920;BME280;59039;52.108;19.942;2023-02-28T07:48:51;102274.57;;;-1.50;71.64
60920;BME280;59039;52.108;19.942;2023-02-28T07:51:16;102282.26;;;-1.43;71.32
60920;BME280;59039;52.108;19.942;2023-02-28T07:54:03;102284.13;;;-1.39;71.11
60920;BME280;59039;52.108;19.942;2023-02-28T07:56:27;102282.74;;;-1.33;70.86
60920;BME280;59039;52.108;19.942;2023-02-28T07:58:53;102281.75;;;-1.28;70.68
60920;BME280;59039;52.108;19.942;2023-02-28T08:01:18;102278.81;;;-1.24;70.26
60920;BME280;59039;52.108;19.942;2023-02-28T08:03:44;102275.50;;;-1.19;69.77
60920;BME280;59039;52.108;19.942;2023-02-28T08:06:19;102276.61;;;-1.13;69.55
60920;BME280;59039;52.108;19.942;2023-02-28T08:08:50;102280.70;;;-1.05;69.55
60920;BME280;59039;52.108;19.942;2023-02-28T08:11:16;102281.12;;;-0.99;69.43
60920;BME280;59039;52.108;19.942;2023-02-28T08:13:49;102281.52;;;-0.94;68.75
60920;BME280;59039;52.108;19.942;2023-02-28T08:16:15;102279.61;;;-0.89;68.65
60920;BME280;59039;52.108;19.942;2023-02-28T08:18:40;102278.29;;;-0.84;68.01
60920;BME280;59039;52.108;19.942;2023-02-28T08:21:08;102274.55;;;-0.77;67.78
60920;BME280;59039;52.108;19.942;2023-02-28T08:23:33;102272.10;;;-0.71;67.50
60920;BME280;59039;52.108;19.942;2023-02-28T08:25:59;102273.35;;;-0.64;67.89
60920;BME280;59039;52.108;19.942;2023-02-28T08:28:24;102271.59;;;-0.58;67.56
60920;BME280;59039;52.108;19.942;2023-02-28T08:30:49;102267.15;;;-0.52;68.01
60920;BME280;59039;52.108;19.942;2023-02-28T08:33:17;102268.45;;;-0.46;67.57
60920;BME280;59039;52.108;19.942;2023-02-28T08:35:43;102268.33;;;-0.41;67.55
60920;BME280;59039;52.108;19.942;2023-02-28T08:38:08;102268.15;;;-0.34;67.68
60920;BME280;59039;52.108;19.942;2023-02-28T08:40:34;102267.52;;;-0.31;66.40
60920;BME280;59039;52.108;19.942;2023-02-28T08:42:59;102259.57;;;-0.26;66.21
60920;BME280;59039;52.108;19.942;2023-02-28T08:45:25;102259.06;;;-0.21;66.79
60920;BME280;59039;52.108;19.942;2023-02-28T08:47:50;102264.29;;;-0.16;66.52
60920;BME280;59039;52.108;19.942;2023-02-28T08:50:16;102262.70;;;-0.10;66.37
60920;BME280;59039;52.108;19.942;2023-02-28T08:52:44;102263.27;;;-0.05;65.69
60920;BME280;59039;52.108;19.942;2023-02-28T08:55:10;102268.66;;;0.01;66.35
60920;BME280;59039;52.108;19.942;2023-02-28T08:57:35;102266.41;;;0.05;66.31
60920;BME280;59039;52.108;19.942;2023-02-28T09:00:01;102265.98;;;0.07;65.40
60920;BME280;59039;52.108;19.942;2023-02-28T09:02:27;102268.91;;;0.10;65.06
60920;BME280;59039;52.108;19.942;2023-02-28T09:04:52;102266.34;;;0.14;64.51
60920;BME280;59039;52.108;19.942;2023-02-28T09:07:18;102262.83;;;0.18;64.25
60920;BME280;59039;52.108;19.942;2023-02-28T09:09:43;102263.94;;;0.23;63.67
60920;BME280;59039;52.108;19.942;2023-02-28T09:12:09;102265.23;;;0.27;64.34
60920;BME280;59039;52.108;19.942;2023-02-28T09:14:34;102269.63;;;0.30;63.96
60920;BME280;59039;52.108;19.942;2023-02-28T09:16:59;102263.26;;;0.34;65.44
60920;BME280;59039;52.108;19.942;2023-02-28T09:19:25;102265.04;;;0.35;64.93
60920;BME280;59039;52.108;19.942;2023-02-28T09:21:50;102266.95;;;0.36;64.24
60920;BME280;59039;52.108;19.942;2023-02-28T09:24:15;102264.38;;;0.38;64.39
60920;BME280;59039;52.108;19.942;2023-02-28T09:26:41;102266.10;;;0.41;64.08
60920;BME280;59039;52.108;19.942;2023-02-28T09:29:06;102264.95;;;0.44;63.62
60920;BME280;59039;52.108;19.942;2023-02-28T09:31:35;102265.92;;;0.47;63.42
60920;BME280;59039;52.108;19.942;2023-02-28T09:34:00;102267.13;;;0.48;62.59
60920;BME280;59039;52.108;19.942;2023-02-28T09:36:26;102267.38;;;0.52;63.45
60920;BME280;59039;52.108;19.942;2023-02-28T09:38:52;102265.93;;;0.53;63.20
60920;BME280;59039;52.108;19.942;2023-02-28T09:43:52;102272.15;;;0.60;63.06
60920;BME280;59039;52.108;19.942;2023-02-28T09:46:30;102267.64;;;0.61;60.89
60920;BME280;59039;52.108;19.942;2023-02-28T09:48:58;102268.45;;;0.64;60.93
60920;BME280;59039;52.108;19.942;2023-02-28T09:54:06;102273.09;;;0.70;60.35
60920;BME280;59039;52.108;19.942;2023-02-28T09:56:39;102276.91;;;0.74;60.06
60920;BME280;59039;52.108;19.942;2023-02-28T09:59:36;102271.31;;;0.76;59.46
60920;BME280;59039;52.108;19.942;2023-02-28T10:05:47;102276.20;;;0.85;60.10
60920;BME280;59039;52.108;19.942;2023-02-28T10:09:10;102273.63;;;0.88;58.88
60920;BME280;59039;52.108;19.942;2023-02-28T10:11:12;102275.05;;;0.94;59.62
60920;BME280;59039;52.108;19.942;2023-02-28T10:16:22;102272.76;;;1.04;58.87
60920;BME280;59039;52.108;19.942;2023-02-28T10:18:57;102275.73;;;1.06;58.50
60920;BME280;59039;52.108;19.942;2023-02-28T10:21:39;102270.65;;;1.09;58.85
60920;BME280;59039;52.108;19.942;2023-02-28T10:24:21;102269.69;;;1.11;58.62
60920;BME280;59039;52.108;19.942;2023-02-28T10:26:48;102273.18;;;1.13;57.88
60920;BME280;59039;52.108;19.942;2023-02-28T10:29:16;102271.88;;;1.15;58.62
60920;BME280;59039;52.108;19.942;2023-02-28T10:31:41;102276.10;;;1.17;58.86
60920;BME280;59039;52.108;19.942;2023-02-28T10:34:07;102277.45;;;1.20;59.59
60920;BME280;59039;52.108;19.942;2023-02-28T10:36:57;102274.17;;;1.21;58.03
60920;BME280;59039;52.108;19.942;2023-02-28T10:39:52;102273.40;;;1.23;58.40
60920;BME280;59039;52.108;19.942;2023-02-28T10:42:24;102272.81;;;1.25;59.38
60920;BME280;59039;52.108;19.942;2023-02-28T10:45:14;102273.98;;;1.28;59.86
60920;BME280;59039;52.108;19.942;2023-02-28T10:47:56;102270.95;;;1.28;58.30
60920;BME280;59039;52.108;19.942;2023-02-28T10:56:21;102265.84;;;1.31;58.88
60920;BME280;59039;52.108;19.942;2023-02-28T11:01:43;102255.52;;;1.35;58.00
60920;BME280;59039;52.108;19.942;2023-02-28T11:04:31;102251.23;;;1.35;58.03
60920;BME280;59039;52.108;19.942;2023-02-28T11:07:20;102250.55;;;1.34;57.86
60920;BME280;59039;52.108;19.942;2023-02-28T11:09:53;102248.90;;;1.36;58.64
60920;BME280;59039;52.108;19.942;2023-02-28T11:12:34;102247.05;;;1.38;59.80
60920;BME280;59039;52.108;19.942;2023-02-28T11:15:04;102244.45;;;1.41;59.39
60920;BME280;59039;52.108;19.942;2023-02-28T11:17:31;102239.04;;;1.42;59.39
60920;BME280;59039;52.108;19.942;2023-02-28T11:20:07;102237.33;;;1.45;59.65
60920;BME280;59039;52.108;19.942;2023-02-28T11:22:45;102237.27;;;1.47;58.93
60920;BME280;59039;52.108;19.942;2023-02-28T11:25:29;102235.16;;;1.46;58.29
60920;BME280;59039;52.108;19.942;2023-02-28T11:28:03;102228.94;;;1.45;58.75
60920;BME280;59039;52.108;19.942;2023-02-28T11:30:41;102223.95;;;1.44;58.65
60920;BME280;59039;52.108;19.942;2023-02-28T11:33:43;102226.42;;;1.45;58.24
60920;BME280;59039;52.108;19.942;2023-02-28T11:36:19;102223.10;;;1.43;58.02
60920;BME280;59039;52.108;19.942;2023-02-28T11:38:46;102221.22;;;1.41;58.27
60920;BME280;59039;52.108;19.942;2023-02-28T11:52:59;102205.50;;;1.46;58.89
60920;BME280;59039;52.108;19.942;2023-02-28T11:55:36;102198.86;;;1.47;58.31
60920;BME280;59039;52.108;19.942;2023-02-28T12:07:09;102182.02;;;1.49;59.32
60920;BME280;59039;52.108;19.942;2023-02-28T12:12:38;102179.39;;;1.52;59.09
60920;BME280;59039;52.108;19.942;2023-02-28T12:18:17;102176.70;;;1.58;58.94
60920;BME280;59039;52.108;19.942;2023-02-28T12:21:06;102177.66;;;1.60;59.20
60920;BME280;59039;52.108;19.942;2023-02-28T12:27:02;102167.54;;;1.64;58.06
60920;BME280;59039;52.108;19.942;2023-02-28T12:29:43;102168.77;;;1.64;57.74
60920;BME280;59039;52.108;19.942;2023-02-28T12:32:25;102160.58;;;1.63;57.98
60920;BME280;59039;52.108;19.942;2023-02-28T12:34:56;102157.75;;;1.62;57.81
60920;BME280;59039;52.108;19.942;2023-02-28T12:37:34;102153.27;;;1.63;58.11
60920;BME280;59039;52.108;19.942;2023-02-28T12:40:05;102156.84;;;1.64;58.57
60920;BME280;59039;52.108;19.942;2023-02-28T12:42:36;102156.41;;;1.65;58.70
60920;BME280;59039;52.108;19.942;2023-02-28T12:45:12;102153.83;;;1.67;59.00
60920;BME280;59039;52.108;19.942;2023-02-28T12:47:42;102151.82;;;1.69;59.23
60920;BME280;59039;52.108;19.942;2023-02-28T12:50:10;102151.18;;;1.72;59.27
60920;BME280;59039;52.108;19.942;2023-02-28T12:58:07;102139.80;;;1.80;59.71
60920;BME280;59039;52.108;19.942;2023-02-28T13:01:23;102135.77;;;1.82;59.45
60920;BME280;59039;52.108;19.942;2023-02-28T13:04:24;102136.13;;;1.83;59.10
60920;BME280;59039;52.108;19.942;2023-02-28T13:09:23;102134.96;;;1.85;58.77
60920;BME280;59039;52.108;19.942;2023-02-28T13:11:52;102135.58;;;1.88;59.15
60920;BME280;59039;52.108;19.942;2023-02-28T13:19:35;102125.91;;;1.93;58.76
60920;BME280;59039;52.108;19.942;2023-02-28T13:22:03;102116.36;;;1.95;59.14
60920;BME280;59039;52.108;19.942;2023-02-28T13:24:51;102117.55;;;1.97;59.06
60920;BME280;59039;52.108;19.942;2023-02-28T13:27:40;102119.40;;;2.00;59.03
60920;BME280;59039;52.108;19.942;2023-02-28T13:33:25;102112.89;;;2.02;59.19
60920;BME280;59039;52.108;19.942;2023-02-28T13:38:48;102114.06;;;2.04;58.79
60920;BME280;59039;52.108;19.942;2023-02-28T13:44:21;102111.44;;;2.02;58.07
60920;BME280;59039;52.108;19.942;2023-02-28T13:49:34;102110.08;;;2.05;59.27
60920;BME280;59039;52.108;19.942;2023-02-28T13:52:15;102113.39;;;2.07;59.54
60920;BME280;59039;52.108;19.942;2023-02-28T13:58:46;102108.98;;;2.10;59.45
60920;BME280;59039;52.108;19.942;2023-02-28T14:04:53;102101.97;;;2.12;59.01
60920;BME280;59039;52.108;19.942;2023-02-28T14:07:28;102097.98;;;2.13;59.03
60920;BME280;59039;52.108;19.942;2023-02-28T14:10:00;102091.14;;;2.14;58.59
60920;BME280;59039;52.108;19.942;2023-02-28T14:15:26;102088.78;;;2.15;58.39
60920;BME280;59039;52.108;19.942;2023-02-28T14:17:52;102088.38;;;2.16;58.54
60920;BME280;59039;52.108;19.942;2023-02-28T14:20:30;102087.31;;;2.16;58.29
60920;BME280;59039;52.108;19.942;2023-02-28T14:25:40;102085.64;;;2.18;59.11
60920;BME280;59039;52.108;19.942;2023-02-28T14:34:31;102081.17;;;2.18;58.79
60920;BME280;59039;52.108;19.942;2023-02-28T14:37:01;102081.36;;;2.17;58.58
60920;BME280;59039;52.108;19.942;2023-02-28T14:39:28;102082.33;;;2.15;59.03
60920;BME280;59039;52.108;19.942;2023-02-28T14:42:22;102077.34;;;2.15;59.02
60920;BME280;59039;52.108;19.942;2023-02-28T14:44:40;102079.85;;;2.15;59.10
60920;BME280;59039;52.108;19.942;2023-02-28T14:47:14;102077.59;;;2.13;58.92
60920;BME280;59039;52.108;19.942;2023-02-28T14:49:50;102072.66;;;2.11;59.48
60920;BME280;59039;52.108;19.942;2023-02-28T14:52:21;102069.98;;;2.11;60.12
60920;BME280;59039;52.108;19.942;2023-02-28T14:55:01;102068.48;;;2.13;60.41
60920;BME280;59039;52.108;19.942;2023-02-28T14:57:34;102066.69;;;2.13;60.07
60920;BME280;59039;52.108;19.942;2023-02-28T15:00:40;102063.65;;;2.13;59.75
60920;BME280;59039;52.108;19.942;2023-02-28T15:03:27;102061.70;;;2.12;59.22
60920;BME280;59039;52.108;19.942;2023-02-28T15:06:13;102059.95;;;2.12;59.63
60920;BME280;59039;52.108;19.942;2023-02-28T15:08:38;102059.68;;;2.09;59.31
60920;BME280;59039;52.108;19.942;2023-02-28T15:11:11;102057.01;;;2.09;59.79
60920;BME280;59039;52.108;19.942;2023-02-28T15:13:44;102053.13;;;2.07;59.65
60920;BME280;59039;52.108;19.942;2023-02-28T15:16:34;102055.48;;;2.07;59.85
60920;BME280;59039;52.108;19.942;2023-02-28T15:19:16;102049.80;;;2.06;59.59